• Join FlightAware (Why Join?)
  • Login
  • US Flag 
11:26PM EDT


 

Airport Tracker/Info


-or-


 

Live Flight TrackerFlight Track Log ✈ SWA127 ✈ 01-May-2013 ✈ KHOU - KHRL

Flight Track Log - Related Links

Times and Time Zones

All times are in EDT time to prevent confusion due to time zone crossing. See the SWA127 flight status page for this flight to view local times or setup timezone preferences in your user account.

Time Position Orientation Groundspeed Altitude Reporting Facility
EDT Latitude Longitude Course Direction KTS MPH feet Rate Location/Type
11:37AM 29.6289 -95.2633 151° Southeast 155 178 800  Level Houston Center
11:37AM 29.6133 -95.2533 151° Southeast 176 203 1,600 1,860 Climbing Houston Center
11:38AM 29.5528 -95.2367 167° South 251 289 3,500 1,860 Climbing Houston Center
11:39AM 29.5244 -95.2292 167° South 235 270 4,500 2,940 Climbing Houston Center
11:39AM 29.4797 -95.2192 169° South 287 330 6,500 3,000 Climbing Houston Center
11:40AM 29.4494 -95.2219 185° South 271 312 7,600 2,880 Climbing Houston Center
11:41AM 29.3564 -95.2636 201° Southwest 303 349 11,100 2,880 Climbing Houston Center
11:42AM 29.2733 -95.3100 206° Southwest 325 374 13,600 2,580 Climbing Houston Center
11:43AM 29.1811 -95.3619 206° Southwest 364 419 16,500 2,520 Climbing Houston Center
11:44AM 29.0878 -95.4158 207° Southwest 373 429 18,900 2,460 Climbing Houston Center
11:45AM 28.9886 -95.4711 206° Southwest 391 450 21,600 2,400 Climbing Houston Center
11:46AM 28.8911 -95.5272 207° Southwest 392 451 23,900 2,100 Climbing Houston Center
11:47AM 28.7753 -95.6125 213° Southwest 414 476 26,000 1,980 Climbing Houston Center
11:48AM 28.6819 -95.6897 216° Southwest 415 478 28,100 1,560 Climbing Houston Center
11:49AM 28.5858 -95.7678 216° Southwest 422 486 29,300 1,440 Climbing Houston Center
11:50AM 28.4883 -95.8494 216° Southwest 434 499 31,100 1,680 Climbing Houston Center
11:51AM 28.3914 -95.9275 215° Southwest 426 490 32,900 1,380 Climbing Houston Center
11:52AM 28.2922 -96.0100 216° Southwest 426 490 34,000 480 Climbing Houston Center
11:53AM 28.1947 -96.0906 216° Southwest 431 496 34,000  Level Houston Center
11:54AM 28.0797 -96.1839 216° Southwest 425 489 34,000  Level Houston Center
11:55AM 27.9842 -96.2608 215° Southwest 422 486 34,000  Level Houston Center
11:56AM 27.8911 -96.3358 215° Southwest 415 478 34,000  Level Houston Center
11:57AM 27.7981 -96.4108 215° Southwest 411 473 34,000  Level Houston Center
11:58AM 27.7047 -96.4867 216° Southwest 411 473 34,000  Level Houston Center
11:59AM 27.6119 -96.5606 215° Southwest 410 472 34,000 -780 Level Houston Center
12:00PM 27.5003 -96.6503 215° Southwest 410 472 32,400 -2,340 Descending Houston Center
12:02PM 27.4081 -96.7253 216° Southwest 408 470 29,200 -2,760 Descending Houston Center
12:03PM 27.3158 -96.7967 215° Southwest 406 467 26,700 -2,520 Descending Houston Center
12:04PM 27.2164 -96.8778 216° Southwest 398 458 24,000 -2,460 Descending Houston Center
12:04PM 27.1422 -96.9344 214° Southwest 391 450 22,100 -2,400 Descending Houston Center
12:05PM 27.0864 -96.9800 216° Southwest 385 443 20,500 -2,400 Descending Houston Center
12:06PM 27.0411 -97.0153 215° Southwest 385 443 19,200 -2,220 Descending Houston Center
12:06PM 27.0053 -97.0453 217° Southwest 374 430 18,300 -2,220 Descending Houston Center
12:07PM 26.9586 -97.0808 214° Southwest 372 428 16,900 -2,280 Descending Houston Center
12:07PM 26.9183 -97.1139 216° Southwest 356 410 16,000 -900 Descending Houston Center
12:08PM 26.8706 -97.1503 214° Southwest 352 405 16,000 -120 Level Houston Center
12:08PM 26.8411 -97.1764 218° Southwest 345 397 15,900 -1,860 Descending Houston Center
12:09PM 26.7856 -97.2172 213° Southwest 347 399 14,100 -2,700 Descending Houston Center
12:09PM 26.7594 -97.2369 214° Southwest 350 403 13,200 -2,520 Descending Houston Center
12:10PM 26.7050 -97.2811 216° Southwest 354 407 11,500 -2,340 Descending Houston Center
12:10PM 26.6828 -97.3039 222° Southwest 353 406 10,900 -1,500 Descending Houston Center
12:11PM 26.6464 -97.3692 238° Southwest 325 374 10,000 -1,200 Descending Houston Center
12:11PM 26.6347 -97.3853 231° Southwest 302 348 9,700 -1,260 Descending Houston Center
12:12PM 26.6025 -97.4433 238° Southwest 292 336 8,700 -1,620 Descending Houston Center
12:12PM 26.5867 -97.4644 230° Southwest 273 314 8,100 -2,160 Descending Houston Center
12:13PM 26.5564 -97.5183 238° Southwest 275 316 6,500 -1,980 Descending Houston Center
12:14PM 26.5147 -97.5883 236° Southwest 273 314 4,600 -1,560 Descending Houston Center
12:15PM 26.4628 -97.6525 228° Southwest 288 331 3,300 -960 Descending Houston Center
12:16PM 26.3975 -97.6583 185° South 201 231 2,600 -660 Descending Houston Center
12:17PM 26.3447 -97.6586 180° South 180 207 2,000 -780 Descending Houston Center
12:18PM 26.2981 -97.6583 180° South 177 204 1,100 -780 Descending Houston Center
12:19PM 26.2622 -97.6589 181° South 134 154 500 -600 Descending Houston Center
12:22PM 26.2271 -97.6551 189° South  Level Estimated